Time;durP1;ratioP1;P1;durP2;ratioP2;P2;SDS_P1;SDS_P2;PMS_P1;PMS_P2;Temp;Humidity;BMP_temperature;BMP_pressure;BME280_temperature;BME280_humidity;BME280_pressure;Samples;Min_cycle;Max_cycle;Signal;HPM_P1;HPM_P2
2022/12/05 00:01:12;;;;;;;7.10;1.70;;;;;;;6.95;100.00;102580.28;5118791;27;20058;-85
2022/12/05 00:03:39;;;;;;;9.35;2.03;;;;;;;7.08;100.00;102591.66;5090152;28;20048;-85
2022/12/05 00:06:06;;;;;;;10.13;2.13;;;;;;;6.82;100.00;102568.91;5083017;28;20048;-85
2022/12/05 00:08:33;;;;;;;7.18;2.05;;;;;;;7.02;100.00;102575.13;5097434;28;20105;-85
2022/12/05 00:11:00;;;;;;;8.07;1.70;;;;;;;6.96;100.00;102587.25;5087012;28;20047;-85
2022/12/05 00:13:26;;;;;;;7.25;1.90;;;;;;;6.80;100.00;102583.66;5082399;28;20121;-85
2022/12/05 00:15:53;;;;;;;10.23;1.92;;;;;;;7.01;100.00;102609.88;5085066;28;20044;-85
2022/12/05 00:18:20;;;;;;;7.93;1.88;;;;;;;6.77;100.00;102575.81;5085716;28;20109;-85
2022/12/05 00:20:48;;;;;;;8.02;1.85;;;;;;;6.65;100.00;102555.75;5090090;28;20052;-85
2022/12/05 00:23:15;;;;;;;9.10;2.10;;;;;;;6.84;100.00;102578.47;5083239;28;20482;-84
2022/12/05 00:25:41;;;;;;;8.25;1.70;;;;;;;6.49;100.00;102565.19;5082515;28;20044;-85
2022/12/05 00:28:08;;;;;;;15.63;2.60;;;;;;;6.76;100.00;102584.47;5084506;28;20489;-85
2022/12/05 00:30:39;;;;;;;10.82;2.45;;;;;;;6.56;100.00;102598.19;5087796;28;20044;-86
2022/12/05 00:33:05;;;;;;;10.07;2.30;;;;;;;6.87;100.00;102608.00;5086967;28;20051;-85
2022/12/05 00:35:33;;;;;;;5.38;1.40;;;;;;;6.77;100.00;102626.16;5087036;28;20052;-86
2022/12/05 00:38:00;;;;;;;8.82;2.10;;;;;;;6.81;100.00;102625.31;5086203;28;20059;-86
2022/12/05 00:40:27;;;;;;;9.85;2.40;;;;;;;6.77;100.00;102614.88;5084602;28;20113;-86
2022/12/05 00:42:53;;;;;;;6.32;1.95;;;;;;;6.72;100.00;102598.34;5086613;28;20105;-86
2022/12/05 00:45:20;;;;;;;8.07;1.48;;;;;;;6.63;100.00;102584.38;5084155;28;20074;-87
2022/12/05 00:47:47;;;;;;;5.55;1.60;;;;;;;6.54;100.00;102601.66;5100911;28;20101;-86
2022/12/05 00:50:14;;;;;;;6.93;1.60;;;;;;;6.19;100.00;102552.75;5099156;28;20044;-87
2022/12/05 00:52:40;;;;;;;6.10;1.60;;;;;;;6.68;100.00;102602.66;5086565;28;20071;-87
2022/12/05 00:55:08;;;;;;;5.68;1.33;;;;;;;6.92;100.00;102633.22;5085746;28;20044;-86
2022/12/05 00:57:34;;;;;;;6.45;2.35;;;;;;;6.61;100.00;102575.69;5085627;28;20052;-86
2022/12/05 01:00:02;;;;;;;7.30;1.92;;;;;;;6.90;100.00;102621.91;5085511;28;20044;-86
2022/12/05 01:02:29;;;;;;;9.27;2.90;;;;;;;6.57;100.00;102618.19;5084276;28;20124;-86
2022/12/05 01:04:56;;;;;;;7.78;1.90;;;;;;;6.64;100.00;102619.97;5084063;28;20448;-86
2022/12/05 01:07:23;;;;;;;7.68;2.33;;;;;;;6.66;100.00;102601.78;5102024;28;20043;-86
2022/12/05 01:09:50;;;;;;;14.30;2.15;;;;;;;7.00;100.00;102621.13;5086503;28;20093;-86
2022/12/05 01:12:16;;;;;;;11.90;2.67;;;;;;;6.96;100.00;102603.75;5083437;28;20059;-86
2022/12/05 01:14:43;;;;;;;7.93;2.17;;;;;;;6.99;100.00;102629.81;5083205;28;20105;-86
2022/12/05 01:17:10;;;;;;;8.63;2.22;;;;;;;6.77;100.00;102625.28;5083913;28;20040;-86
2022/12/05 01:19:37;;;;;;;9.23;1.80;;;;;;;6.59;100.00;102639.88;5087687;28;20059;-86
2022/12/05 01:22:04;;;;;;;10.40;1.88;;;;;;;6.59;100.00;102631.22;5097421;28;20052;-86
2022/12/05 01:24:30;;;;;;;7.25;1.77;;;;;;;6.57;100.00;102609.47;5084350;28;20047;-86
2022/12/05 01:26:57;;;;;;;4.43;1.50;;;;;;;6.68;100.00;102618.28;5086061;28;20474;-86
2022/12/05 01:29:24;;;;;;;6.68;1.70;;;;;;;6.73;100.00;102631.31;5084632;28;20201;-86
2022/12/05 01:31:52;;;;;;;9.20;1.83;;;;;;;6.92;100.00;102641.03;5087508;28;20044;-86
2022/12/05 01:34:19;;;;;;;8.52;2.15;;;;;;;6.88;100.00;102634.06;5081569;28;20063;-86
2022/12/05 01:36:47;;;;;;;7.95;2.55;;;;;;;6.85;100.00;102615.78;5086631;28;20094;-86
2022/12/05 01:39:14;;;;;;;7.72;2.00;;;;;;;6.95;100.00;102643.66;5099577;28;20048;-86
2022/12/05 01:41:46;;;;;;;12.57;1.88;;;;;;;6.95;100.00;102646.25;5080006;28;20387;-86
2022/12/05 01:44:12;;;;;;;8.38;1.75;;;;;;;6.96;100.00;102648.03;5090795;28;20474;-86
2022/12/05 01:46:45;;;;;;;14.30;2.10;;;;;;;7.07;100.00;102647.25;5082193;28;20481;-86
2022/12/05 01:49:26;;;;;;;9.90;1.83;;;;;;;7.00;100.00;102628.94;5083867;28;20452;-86
2022/12/05 01:52:02;;;;;;;8.20;1.60;;;;;;;7.12;100.00;102619.47;5087711;28;20060;-86
2022/12/05 01:54:29;;;;;;;5.95;1.83;;;;;;;7.08;100.00;102634.19;5083676;28;20048;-86
2022/12/05 01:57:01;;;;;;;8.75;2.08;;;;;;;7.11;100.00;102643.78;5085820;28;20052;-86
2022/12/05 01:59:33;;;;;;;9.00;2.25;;;;;;;6.81;100.00;102607.09;5101682;28;20048;-85
2022/12/05 02:02:00;;;;;;;7.85;2.15;;;;;;;6.75;100.00;102591.44;5084991;28;20055;-85
2022/12/05 02:04:27;;;;;;;11.05;2.20;;;;;;;7.07;100.00;102639.41;5084873;28;20493;-85
2022/12/05 02:06:54;;;;;;;7.60;2.30;;;;;;;7.14;100.00;102633.41;5088278;28;20050;-85
2022/12/05 02:09:22;;;;;;;6.47;1.67;;;;;;;7.34;100.00;102633.50;5090958;28;20120;-85
2022/12/05 02:11:58;;;;;;;9.52;2.15;;;;;;;7.20;100.00;102621.25;5093715;28;20539;-85
2022/12/05 02:14:50;;;;;;;6.55;1.60;;;;;;;7.47;100.00;102637.94;5091255;28;20056;-85
2022/12/05 02:17:49;;;;;;;6.10;1.95;;;;;;;7.42;100.00;102637.06;5089797;28;20051;-85
2022/12/05 02:20:25;;;;;;;14.13;2.30;;;;;;;7.34;100.00;102642.19;5085824;28;20109;-85
2022/12/05 02:23:15;;;;;;;6.80;1.95;;;;;;;7.25;100.00;102641.28;5090289;28;20051;-85
2022/12/05 02:26:16;;;;;;;7.90;1.88;;;;;;;7.12;100.00;102630.78;5089704;28;20459;-84
2022/12/05 02:29:13;;;;;;;6.78;2.40;;;;;;;7.24;100.00;102637.78;5088208;28;20097;-85
2022/12/05 02:32:01;;;;;;;8.00;2.67;;;;;;;7.18;100.00;102629.94;5090228;28;20097;-84
2022/12/05 02:34:40;;;;;;;7.93;1.80;;;;;;;7.30;100.00;102621.34;5089267;28;20051;-85
2022/12/05 02:37:23;;;;;;;6.22;2.15;;;;;;;7.15;100.00;102622.09;5089568;28;20105;-84
2022/12/05 02:40:04;;;;;;;7.65;1.75;;;;;;;7.30;100.00;102631.75;5090012;28;20055;-85
2022/12/05 02:42:39;;;;;;;11.23;1.98;;;;;;;7.28;100.00;102628.25;5090492;28;20093;-84
2022/12/05 02:45:13;;;;;;;6.22;1.38;;;;;;;6.99;100.00;102574.22;5085748;28;20379;-84
2022/12/05 02:47:46;;;;;;;7.75;1.45;;;;;;;7.41;100.00;102627.47;5090241;28;20048;-85
2022/12/05 02:50:19;;;;;;;8.18;2.33;;;;;;;6.93;100.00;102601.09;5090868;28;20595;-85
2022/12/05 02:52:48;;;;;;;13.20;2.45;;;;;;;7.06;100.00;102617.69;5088844;28;20053;-84
2022/12/05 02:55:17;;;;;;;6.85;1.50;;;;;;;7.20;100.00;102623.00;5090905;28;20116;-85
2022/12/05 02:57:50;;;;;;;6.07;1.67;;;;;;;7.10;100.00;102605.56;5088435;28;20390;-84
2022/12/05 03:00:17;;;;;;;6.85;1.92;;;;;;;7.10;100.00;102614.25;5088945;28;20444;-84
2022/12/05 03:02:44;;;;;;;5.53;1.73;;;;;;;7.10;100.00;102629.00;5088778;28;20052;-85
2022/12/05 03:05:23;;;;;;;5.60;1.73;;;;;;;7.07;100.00;102636.81;5090622;28;20105;-84
2022/12/05 03:07:55;;;;;;;6.20;1.80;;;;;;;7.17;100.00;102629.06;5089598;28;20186;-85
2022/12/05 03:10:26;;;;;;;8.38;1.67;;;;;;;7.31;100.00;102633.50;5092031;28;20064;-84
2022/12/05 03:12:59;;;;;;;5.15;1.50;;;;;;;7.33;100.00;102639.56;5089746;28;20397;-85
2022/12/05 03:15:33;;;;;;;7.60;1.50;;;;;;;7.00;100.00;102592.47;5087138;28;20044;-84
2022/12/05 03:18:10;;;;;;;6.22;1.67;;;;;;;7.29;100.00;102630.00;5089586;28;20097;-84
2022/12/05 03:20:47;;;;;;;4.82;1.70;;;;;;;7.41;100.00;102632.69;5090144;28;20047;-85
2022/12/05 03:23:30;;;;;;;9.20;2.05;;;;;;;7.25;100.00;102607.41;5086585;28;20463;-85
2022/12/05 03:26:10;;;;;;;20.87;2.50;;;;;;;7.23;100.00;102646.47;5105370;28;20128;-85
2022/12/05 03:28:40;;;;;;;8.55;1.77;;;;;;;7.32;100.00;102645.66;5087212;28;20288;-85
2022/12/05 03:31:12;;;;;;;3.95;1.48;;;;;;;7.15;100.00;102619.50;5086941;28;20094;-85
2022/12/05 03:33:43;;;;;;;5.53;1.70;;;;;;;7.16;100.00;102610.81;5088203;28;20052;-85
2022/12/05 03:36:27;;;;;;;9.35;1.83;;;;;;;7.28;100.00;102660.41;5086621;28;20048;-85
2022/12/05 03:39:06;;;;;;;8.23;1.63;;;;;;;7.35;100.00;102654.38;5091574;28;20432;-85
2022/12/05 03:41:50;;;;;;;5.45;1.75;;;;;;;7.23;100.00;102657.75;5090637;28;20048;-85
2022/12/05 03:44:44;;;;;;;11.93;2.63;;;;;;;7.18;100.00;102650.78;5089073;28;20051;-85
2022/12/05 03:47:37;;;;;;;9.55;2.03;;;;;;;7.22;100.00;102662.97;5083542;28;20049;-85
2022/12/05 03:50:26;;;;;;;9.20;2.15;;;;;;;7.08;100.00;102648.97;5071852;28;20051;-84
2022/12/05 03:53:08;;;;;;;10.45;2.20;;;;;;;7.04;100.00;102650.66;5086672;28;20056;-84
2022/12/05 03:55:59;;;;;;;4.63;2.28;;;;;;;7.09;100.00;102658.53;5089034;28;20473;-85
2022/12/05 03:58:35;;;;;;;8.45;1.80;;;;;;;6.78;100.00;102621.81;5085766;28;20051;-85
2022/12/05 04:01:06;;;;;;;6.63;1.40;;;;;;;6.88;100.00;102630.59;5088083;28;20074;-85
2022/12/05 04:03:39;;;;;;;9.23;1.70;;;;;;;6.99;100.00;102644.56;5086711;28;20550;-84
2022/12/05 04:06:17;;;;;;;8.57;1.90;;;;;;;6.82;100.00;102634.88;5089644;28;20101;-84
2022/12/05 04:08:52;;;;;;;5.80;1.90;;;;;;;7.04;100.00;102641.13;5088414;28;20158;-84
2022/12/05 04:11:24;;;;;;;5.68;2.00;;;;;;;6.83;100.00;102628.81;5086088;28;20375;-84
2022/12/05 04:13:58;;;;;;;4.93;1.60;;;;;;;6.95;100.00;102661.88;5105408;28;20053;-85
2022/12/05 04:22:24;;;;;;;11.35;3.47;;;;;;;7.04;100.00;102664.56;5084880;28;20108;-85
2022/12/05 04:27:51;;;;;;;6.50;2.60;;;;;;;7.00;100.00;102672.34;5086210;28;20408;-85
2022/12/05 04:30:24;;;;;;;8.93;1.73;;;;;;;6.94;100.00;102654.06;5086945;28;20139;-84
2022/12/05 04:33:05;;;;;;;7.25;1.70;;;;;;;7.18;100.00;102671.63;5084240;28;20056;-85
2022/12/05 04:35:40;;;;;;;6.38;1.50;;;;;;;7.29;100.00;102676.91;5089501;28;20047;-85
2022/12/05 04:38:41;;;;;;;5.90;1.60;;;;;;;7.08;100.00;102652.44;5087932;28;20133;-85
2022/12/05 04:41:13;;;;;;;4.82;1.45;;;;;;;7.26;100.00;102684.69;5102679;28;20048;-85
2022/12/05 04:43:42;;;;;;;10.15;1.70;;;;;;;7.22;100.00;102684.69;5089239;28;20043;-84
2022/12/05 04:46:12;;;;;;;5.85;1.45;;;;;;;7.10;100.00;102657.66;5084574;28;20052;-85
2022/12/05 04:48:43;;;;;;;5.65;1.42;;;;;;;7.20;100.00;102685.53;5082368;28;20056;-85
2022/12/05 04:51:16;;;;;;;5.40;1.30;;;;;;;6.98;100.00;102655.84;5085175;28;20047;-84
2022/12/05 04:53:45;;;;;;;6.75;1.83;;;;;;;7.10;100.00;102686.31;5088117;28;20078;-85
2022/12/05 04:56:17;;;;;;;9.40;1.50;;;;;;;7.16;100.00;102686.38;5083884;28;20041;-85
2022/12/05 04:58:44;;;;;;;6.57;1.42;;;;;;;7.11;100.00;102675.03;5084714;28;20044;-84
2022/12/05 05:01:21;;;;;;;8.25;1.75;;;;;;;7.24;100.00;102700.31;5085807;28;20097;-85
2022/12/05 05:03:59;;;;;;;7.25;1.63;;;;;;;7.09;100.00;102687.19;5087275;28;20050;-84
2022/12/05 05:06:26;;;;;;;6.57;1.40;;;;;;;6.99;100.00;102678.41;5099666;28;20052;-85
2022/12/05 05:08:56;;;;;;;5.57;1.77;;;;;;;7.13;100.00;102704.56;5087563;28;20055;-84
2022/12/05 05:11:28;;;;;;;4.32;1.25;;;;;;;7.20;100.00;102682.91;5084638;28;20157;-85
2022/12/05 05:13:55;;;;;;;7.68;1.83;;;;;;;7.02;100.00;102678.44;5082807;28;20060;-85
2022/12/05 05:16:24;;;;;;;11.38;2.35;;;;;;;6.79;100.00;102686.06;5086160;28;20060;-84
2022/12/05 05:18:52;;;;;;;6.38;1.60;;;;;;;6.92;100.00;102694.84;5085145;28;20087;-85
2022/12/05 05:21:24;;;;;;;4.30;1.40;;;;;;;6.81;100.00;102689.53;5080710;28;20113;-84
2022/12/05 05:23:51;;;;;;;8.25;1.52;;;;;;;6.58;100.00;102663.28;5087135;28;20101;-85
2022/12/05 05:26:19;;;;;;;5.88;1.70;;;;;;;6.78;100.00;102705.13;5085695;28;20105;-85
2022/12/05 05:28:47;;;;;;;6.28;1.60;;;;;;;6.79;100.00;102693.88;5084677;28;20048;-85
2022/12/05 05:31:15;;;;;;;7.43;1.90;;;;;;;6.41;100.00;102652.69;5085656;28;20040;-84
2022/12/05 05:33:42;;;;;;;6.90;1.60;;;;;;;6.30;100.00;102669.94;5086468;28;20128;-84
2022/12/05 05:36:12;;;;;;;9.77;2.63;;;;;;;6.51;100.00;102703.13;5101392;28;20052;-84
2022/12/05 05:38:47;;;;;;;5.05;1.58;;;;;;;6.42;100.00;102709.97;5106457;28;20053;-84
2022/12/05 05:41:16;;;;;;;10.27;2.10;;;;;;;6.44;100.00;102704.78;5093380;28;20090;-84
2022/12/05 05:43:44;;;;;;;9.82;3.42;;;;;;;6.40;100.00;102700.41;5089018;28;20040;-85
2022/12/05 05:46:12;;;;;;;5.95;1.65;;;;;;;6.24;100.00;102694.16;5089503;28;20424;-84
2022/12/05 05:48:39;;;;;;;10.70;2.03;;;;;;;6.32;100.00;102708.13;5103413;28;20081;-84
2022/12/05 05:51:08;;;;;;;7.30;1.83;;;;;;;5.99;100.00;102675.66;5088241;28;20040;-84
2022/12/05 05:53:36;;;;;;;5.72;1.75;;;;;;;5.75;100.00;102636.31;5088921;28;20044;-84
2022/12/05 05:56:07;;;;;;;6.43;1.60;;;;;;;6.14;100.00;102710.50;5089460;28;20052;-84
2022/12/05 05:58:34;;;;;;;6.72;1.77;;;;;;;5.87;100.00;102717.91;5091208;28;20799;-84
2022/12/05 06:01:09;;;;;;;8.02;1.83;;;;;;;6.09;100.00;102720.81;5088616;28;20040;-84
2022/12/05 06:03:37;;;;;;;4.35;1.63;;;;;;;6.04;100.00;102697.38;5091483;28;20493;-84
2022/12/05 06:06:07;;;;;;;7.47;1.60;;;;;;;6.30;100.00;102719.38;5086717;28;20047;-84
2022/12/05 06:08:35;;;;;;;6.30;1.67;;;;;;;6.32;100.00;102715.03;5093273;28;20056;-84
2022/12/05 06:11:07;;;;;;;7.45;1.50;;;;;;;6.32;100.00;102731.56;5091892;28;20052;-85
2022/12/05 06:13:34;;;;;;;5.95;1.70;;;;;;;6.33;100.00;102729.81;5087127;28;20055;-84
2022/12/05 06:16:03;;;;;;;3.92;1.42;;;;;;;6.20;100.00;102721.00;5088334;28;20091;-85
2022/12/05 06:18:30;;;;;;;5.63;1.50;;;;;;;6.11;100.00;102720.84;5084752;28;20128;-85
2022/12/05 06:20:57;;;;;;;6.72;1.50;;;;;;;5.96;100.00;102704.19;5083998;28;20055;-84
2022/12/05 06:23:25;;;;;;;6.88;1.80;;;;;;;5.83;100.00;102684.94;5085491;28;20402;-85
2022/12/05 06:25:54;;;;;;;7.50;1.70;;;;;;;6.05;100.00;102719.06;5091517;28;20386;-85
2022/12/05 06:28:23;;;;;;;4.00;1.58;;;;;;;6.14;100.00;102732.16;5086176;28;20041;-86
2022/12/05 06:30:50;;;;;;;2.97;1.40;;;;;;;6.03;100.00;102705.16;5084790;28;20053;-85
2022/12/05 06:33:17;;;;;;;6.88;1.67;;;;;;;5.89;100.00;102716.22;5087567;28;20113;-85
2022/12/05 06:35:45;;;;;;;5.45;1.60;;;;;;;5.81;100.00;102693.59;5087098;28;20052;-84
2022/12/05 06:38:12;;;;;;;5.20;1.70;;;;;;;5.96;100.00;102711.13;5088169;28;20054;-85
2022/12/05 06:40:43;;;;;;;5.47;1.63;;;;;;;5.89;100.00;102718.81;5103765;28;20541;-85
2022/12/05 06:43:10;;;;;;;5.57;1.73;;;;;;;5.84;100.00;102711.81;5090082;28;20048;-85
2022/12/05 06:45:37;;;;;;;4.60;1.40;;;;;;;5.83;100.00;102710.06;5085735;28;20097;-86
2022/12/05 06:48:05;;;;;;;5.82;1.80;;;;;;;5.79;100.00;102706.56;5089794;28;20452;-85
2022/12/05 06:50:32;;;;;;;5.78;1.65;;;;;;;5.62;100.00;102682.06;5085597;28;20117;-84
2022/12/05 06:52:59;;;;;;;5.95;1.75;;;;;;;5.70;100.00;102712.50;5090433;28;20052;-84
2022/12/05 06:55:26;;;;;;;4.22;1.52;;;;;;;5.43;100.00;102691.28;5087638;28;20133;-85
2022/12/05 06:57:52;;;;;;;9.48;1.92;;;;;;;5.60;100.00;102726.22;5086155;28;20044;-86
2022/12/05 07:03:04;;;;;;;4.65;1.83;;;;;;;5.45;100.00;102723.38;5093248;28;20112;-85
2022/12/05 07:05:32;;;;;;;5.97;1.90;;;;;;;5.41;100.00;102734.56;5087008;28;20383;-85
2022/12/05 07:07:58;;;;;;;6.40;1.90;;;;;;;5.31;100.00;102731.84;5088826;28;20048;-86
2022/12/05 07:10:31;;;;;;;10.95;2.13;;;;;;;5.11;100.00;102733.22;5088602;28;20048;-85
2022/12/05 07:13:03;;;;;;;5.07;1.80;;;;;;;5.23;100.00;102715.25;5100309;28;20064;-85
2022/12/05 07:15:29;;;;;;;7.38;1.80;;;;;;;5.44;100.00;102730.28;5083027;28;20060;-84
2022/12/05 07:17:56;;;;;;;13.15;3.08;;;;;;;5.40;100.00;102720.72;5087917;28;20432;-85
2022/12/05 07:20:23;;;;;;;11.63;2.05;;;;;;;5.50;100.00;102711.31;5086917;28;20101;-85
2022/12/05 07:22:50;;;;;;;6.00;1.60;;;;;;;5.80;100.00;102736.88;5088711;28;20055;-85
2022/12/05 07:25:18;;;;;;;9.52;2.22;;;;;;;5.68;100.00;102729.81;5088108;28;20052;-84
2022/12/05 07:27:45;;;;;;;4.70;1.77;;;;;;;5.84;100.00;102723.09;5090394;28;20054;-86
2022/12/05 07:30:12;;;;;;;9.02;2.65;;;;;;;5.73;100.00;102711.66;5089627;28;20040;-85
2022/12/05 07:32:39;;;;;;;6.28;1.80;;;;;;;5.76;100.00;102692.66;5093163;28;20129;-86
2022/12/05 07:35:07;;;;;;;5.32;1.42;;;;;;;5.76;100.00;102690.06;5092342;28;20477;-86
2022/12/05 07:37:33;;;;;;;5.80;1.73;;;;;;;5.88;100.00;102706.69;5092558;28;20455;-86
2022/12/05 07:40:00;;;;;;;6.05;1.83;;;;;;;5.87;100.00;102689.31;5092879;28;20052;-86
2022/12/05 07:42:27;;;;;;;4.30;1.40;;;;;;;5.81;100.00;102722.19;5093004;28;20434;-85
2022/12/05 07:44:54;;;;;;;6.38;1.50;;;;;;;5.74;100.00;102705.63;5090745;28;20089;-85
2022/12/05 07:47:20;;;;;;;8.93;2.40;;;;;;;5.40;100.00;102699.03;5088549;28;20056;-86
2022/12/05 07:49:47;;;;;;;6.93;2.10;;;;;;;5.26;100.00;102745.59;5091079;28;20426;-85
2022/12/05 07:52:14;;;;;;;10.45;2.20;;;;;;;5.43;100.00;102743.25;5092772;28;20056;-85
2022/12/05 07:54:41;;;;;;;8.25;1.90;;;;;;;5.58;100.00;102755.59;5105209;28;20082;-85
2022/12/05 07:57:08;;;;;;;9.60;1.95;;;;;;;5.12;100.00;102696.03;5104552;28;20044;-83
2022/12/05 07:59:35;;;;;;;8.38;2.08;;;;;;;5.04;100.00;102695.00;5120610;28;20044;-84
2022/12/05 08:02:02;;;;;;;6.75;2.00;;;;;;;5.37;100.00;102745.78;5097840;28;20044;-84
2022/12/05 08:04:29;;;;;;;14.30;2.60;;;;;;;5.38;100.00;102750.97;5101531;28;20050;-84
2022/12/05 08:06:56;;;;;;;7.93;1.75;;;;;;;5.21;100.00;102711.75;5103934;28;20040;-84
2022/12/05 08:09:24;;;;;;;8.13;1.60;;;;;;;5.28;100.00;102702.34;5103541;28;20080;-84
2022/12/05 08:11:51;;;;;;;11.48;2.03;;;;;;;5.13;100.00;102688.25;5104484;28;20047;-85
2022/12/05 08:14:19;;;;;;;22.17;3.22;;;;;;;5.60;100.00;102764.31;5119317;28;20488;-82
2022/12/05 08:16:46;;;;;;;9.30;1.70;;;;;;;5.35;100.00;102726.66;5103855;28;20059;-85
2022/12/05 08:19:12;;;;;;;3.35;1.48;;;;;;;5.14;100.00;102721.16;5102363;28;20082;-85
2022/12/05 08:21:39;;;;;;;9.95;2.28;;;;;;;5.23;100.00;102703.97;5103111;28;20040;-82
2022/12/05 08:24:06;;;;;;;6.85;2.28;;;;;;;5.32;100.00;102705.00;5095821;28;20443;-84
2022/12/05 08:26:35;;;;;;;5.18;1.60;;;;;;;5.46;100.00;102740.72;5115796;28;20049;-84
2022/12/05 08:29:06;;;;;;;5.03;1.67;;;;;;;5.56;100.00;102766.00;5104099;28;20130;-84
2022/12/05 08:31:35;;;;;;;7.15;2.03;;;;;;;5.42;100.00;102720.72;5118529;28;20040;-84
2022/12/05 08:34:02;;;;;;;6.60;1.88;;;;;;;5.45;100.00;102747.66;5100473;28;20054;-85
2022/12/05 08:36:30;;;;;;;5.43;1.98;;;;;;;5.49;100.00;102758.97;5103146;28;20124;-84
2022/12/05 08:38:59;;;;;;;6.60;2.05;;;;;;;5.39;100.00;102749.25;5096303;28;20051;-85
2022/12/05 08:41:28;;;;;;;7.15;2.00;;;;;;;5.62;100.00;102775.63;5104487;28;20059;-84
2022/12/05 08:43:58;;;;;;;3.75;1.65;;;;;;;5.52;100.00;102727.81;5098650;28;20064;-85
2022/12/05 08:46:26;;;;;;;6.32;1.80;;;;;;;5.93;100.00;102779.53;5104008;28;20052;-85
2022/12/05 08:48:53;;;;;;;10.77;2.60;;;;;;;5.62;100.00;102753.09;5097630;28;20079;-85
2022/12/05 08:51:20;;;;;;;8.25;2.13;;;;;;;5.87;100.00;102769.06;5100775;28;20051;-84
2022/12/05 08:53:47;;;;;;;9.57;2.22;;;;;;;5.82;100.00;102750.78;5088590;28;20056;-84
2022/12/05 08:56:14;;;;;;;6.72;2.72;;;;;;;5.81;100.00;102767.25;5117694;28;20066;-85
2022/12/05 08:58:41;;;;;;;4.80;1.73;;;;;;;5.84;100.00;102746.50;5102659;28;20112;-84
2022/12/05 09:01:15;;;;;;;7.68;2.33;;;;;;;5.76;100.00;102749.84;5101054;28;20412;-85
2022/12/05 09:03:43;;;;;;;9.07;2.72;;;;;;;5.96;100.00;102777.00;5103432;28;20082;-83
2022/12/05 09:06:13;;;;;;;6.47;2.38;;;;;;;6.21;100.00;102792.97;5103037;28;20117;-85
2022/12/05 09:08:42;;;;;;;8.57;2.10;;;;;;;6.13;100.00;102785.06;5100699;28;20048;-83
2022/12/05 09:11:14;;;;;;;5.95;2.17;;;;;;;6.04;100.00;102775.41;5098731;28;20063;-85
2022/12/05 09:13:45;;;;;;;8.18;2.10;;;;;;;6.17;100.00;102785.97;5103831;28;20046;-85
2022/12/05 09:16:21;;;;;;;6.45;1.90;;;;;;;5.97;100.00;102744.09;5105330;28;20048;-85
2022/12/05 09:18:50;;;;;;;8.73;2.35;;;;;;;6.28;100.00;102802.59;5104727;28;20044;-85
2022/12/05 09:21:20;;;;;;;6.05;2.28;;;;;;;6.22;100.00;102779.13;5104898;28;20071;-84
2022/12/05 09:23:48;;;;;;;6.28;2.05;;;;;;;5.88;100.00;102729.22;5104993;28;20112;-85
2022/12/05 09:26:17;;;;;;;12.05;2.92;;;;;;;6.32;100.00;102801.81;5103886;28;20429;-84
2022/12/05 09:28:46;;;;;;;6.78;1.73;;;;;;;6.33;100.00;102802.66;5104163;28;20076;-84
2022/12/05 09:31:17;;;;;;;5.55;2.05;;;;;;;5.83;100.00;102736.94;5103783;28;20056;-85
2022/12/05 09:33:47;;;;;;;6.70;1.90;;;;;;;6.22;100.00;102805.13;5104077;28;20048;-85
2022/12/05 09:36:22;;;;;;;5.18;1.83;;;;;;;6.18;100.00;102806.81;5091549;28;20044;-85
2022/12/05 09:38:50;;;;;;;5.65;1.85;;;;;;;5.94;100.00;102772.63;5092554;28;20044;-85
2022/12/05 09:44:50;;;;;;;8.20;1.90;;;;;;;6.18;100.00;102813.72;5093545;28;20051;-83
2022/12/05 09:47:38;;;;;;;6.43;1.85;;;;;;;6.10;100.00;102817.97;5099428;28;20084;-85
2022/12/05 09:50:20;;;;;;;5.72;2.00;;;;;;;6.15;100.00;102813.69;5119862;28;20060;-86
2022/12/05 09:53:08;;;;;;;8.48;2.20;;;;;;;6.07;100.00;102811.88;5098366;28;20048;-85
2022/12/05 09:55:42;;;;;;;7.40;2.72;;;;;;;5.65;100.00;102755.75;5098512;28;20050;-84
2022/12/05 09:58:21;;;;;;;36.55;20.73;;;;;;;5.75;100.00;102771.47;5103329;28;20044;-85
2022/12/05 10:00:58;;;;;;;19.63;9.65;;;;;;;5.97;100.00;102791.78;5103105;28;20055;-84
2022/12/05 10:04:00;;;;;;;16.88;10.15;;;;;;;6.04;100.00;102818.75;5104185;28;20044;-83
2022/12/05 10:06:36;;;;;;;15.85;7.10;;;;;;;5.90;100.00;102808.09;5092407;28;20052;-85
2022/12/05 10:09:12;;;;;;;10.43;6.00;;;;;;;6.06;100.00;102825.72;5090318;28;20044;-85
2022/12/05 10:12:17;;;;;;;8.43;3.58;;;;;;;6.17;100.00;102818.06;5090430;28;20040;-83
2022/12/05 10:14:50;;;;;;;8.02;2.50;;;;;;;6.14;100.00;102819.75;5028607;28;20048;-83
2022/12/05 10:17:26;;;;;;;6.05;2.20;;;;;;;5.58;100.00;102758.19;5097664;28;20048;-85
2022/12/05 10:19:58;;;;;;;8.18;2.10;;;;;;;5.87;100.00;102788.13;5100083;28;20470;-84
2022/12/05 10:22:37;;;;;;;5.82;2.35;;;;;;;5.82;100.00;102753.38;5101160;28;20102;-84
2022/12/05 10:25:05;;;;;;;6.68;2.67;;;;;;;5.91;100.00;102789.03;5102004;28;21099;-83
2022/12/05 10:27:35;;;;;;;9.60;3.20;;;;;;;6.20;100.00;102805.09;5091216;28;20055;-84
2022/12/05 10:30:16;;;;;;;9.60;2.70;;;;;;;6.03;100.00;102811.78;5101785;28;20101;-83
2022/12/05 10:32:54;;;;;;;7.53;2.20;;;;;;;5.87;100.00;102806.31;5096291;28;20474;-84
2022/12/05 10:35:31;;;;;;;6.85;2.30;;;;;;;6.11;100.00;102806.69;5099871;28;20051;-84
2022/12/05 10:38:03;;;;;;;8.07;2.47;;;;;;;6.14;100.00;102804.13;5110273;28;20044;-84
2022/12/05 10:40:37;;;;;;;7.13;1.88;;;;;;;5.89;100.00;102751.75;5110267;27;20093;-83
2022/12/05 10:43:05;;;;;;;7.38;2.10;;;;;;;6.03;100.00;102754.56;5120178;27;20408;-83
2022/12/05 10:45:34;;;;;;;4.18;1.85;;;;;;;6.10;100.00;102739.94;5100137;28;20087;-84
2022/12/05 10:48:01;;;;;;;9.98;2.53;;;;;;;6.26;100.00;102766.16;5101667;28;20044;-84
2022/12/05 10:50:29;;;;;;;7.45;1.90;;;;;;;6.08;100.00;102732.97;5101911;28;20048;-84
2022/12/05 10:52:59;;;;;;;5.63;1.90;;;;;;;6.39;100.00;102789.72;5103860;28;20048;-83
2022/12/05 10:55:34;;;;;;;5.15;1.77;;;;;;;6.18;100.00;102749.59;5097016;28;20063;-83
2022/12/05 10:58:22;;;;;;;5.70;2.10;;;;;;;6.46;100.00;102771.63;5092668;28;20061;-84
2022/12/05 11:01:16;;;;;;;7.03;2.35;;;;;;;6.53;100.00;102771.69;5089346;28;20063;-83
2022/12/05 11:03:43;;;;;;;9.35;3.42;;;;;;;6.39;100.00;102745.47;5086395;28;20080;-84
2022/12/05 11:06:15;;;;;;;9.00;1.95;;;;;;;6.37;100.00;102770.63;5080315;28;20094;-84
2022/12/05 11:08:51;;;;;;;9.38;2.83;;;;;;;6.44;100.00;102794.13;5097274;28;20048;-84
2022/12/05 11:11:32;;;;;;;10.45;2.40;;;;;;;6.17;100.00;102745.22;5101253;28;20400;-84
2022/12/05 11:14:22;;;;;;;7.13;2.40;;;;;;;6.43;100.00;102755.97;5101672;28;20055;-83
2022/12/05 11:16:55;;;;;;;5.18;1.60;;;;;;;6.72;100.00;102797.06;5100334;28;20051;-84
2022/12/05 11:19:31;;;;;;;5.03;1.83;;;;;;;6.77;100.00;102790.19;5102273;28;20051;-82
2022/12/05 11:22:00;;;;;;;5.55;1.90;;;;;;;6.74;100.00;102765.84;5101517;28;20067;-84
2022/12/05 11:24:36;;;;;;;3.25;1.40;;;;;;;6.56;100.00;102750.91;5101922;28;20071;-83
2022/12/05 11:27:15;;;;;;;6.32;2.00;;;;;;;6.86;100.00;102799.81;5100988;28;20047;-84
2022/12/05 11:29:44;;;;;;;5.53;1.90;;;;;;;6.63;100.00;102786.56;5081242;28;20056;-84
2022/12/05 11:32:24;;;;;;;6.85;1.90;;;;;;;6.55;100.00;102793.38;5098806;28;20052;-83
2022/12/05 11:35:00;;;;;;;8.40;2.35;;;;;;;6.30;100.00;102747.97;5102527;28;20048;-84
2022/12/05 11:37:36;;;;;;;6.53;2.65;;;;;;;6.34;100.00;102768.88;5101401;28;20047;-84
2022/12/05 11:40:32;;;;;;;5.55;2.00;;;;;;;6.17;100.00;102736.56;5099058;28;20048;-83
2022/12/05 11:43:22;;;;;;;7.78;2.90;;;;;;;6.46;100.00;102789.84;5089268;28;20074;-84
2022/12/05 11:45:55;;;;;;;10.32;3.00;;;;;;;6.39;100.00;102792.31;5092324;28;20048;-84
2022/12/05 11:48:44;;;;;;;6.45;2.35;;;;;;;6.45;100.00;102792.41;5116230;28;20047;-84
2022/12/05 11:51:55;;;;;;;10.40;2.25;;;;;;;6.38;100.00;102772.38;5100162;28;20048;-83
2022/12/05 11:54:22;;;;;;;6.57;2.05;;;;;;;6.65;100.00;102782.22;5053710;28;20082;-82
2022/12/05 11:57:45;;;;;;;6.93;2.00;;;;;;;6.45;100.00;102772.47;5098704;28;20076;-83
2022/12/05 12:00:26;;;;;;;12.32;3.47;;;;;;;6.37;100.00;102748.06;5101146;28;20044;-83
2022/12/05 12:03:30;;;;;;;7.43;2.53;;;;;;;6.61;100.00;102772.66;5099802;28;20044;-83